Cordell, OK

1:29 AM CDT on May 28, 2017 (GMT -0500)
Apache Trail | | Change Station

Elev 1923 ft 35.36 °N, 99.18 °W | Updated 3 minutes ago

Clear
Clear
63.2 °F
Feels Like 63.2 °F
N
3.8
Wind Variable Wind from NE

Today
High -- | Low -- °F
--% Chance of Precip.
Yesterday
High -- | Low -- °F
Precip. -- in
Pressure 29.88 in
Visibility 10.0 miles
Clouds Few 3200 ft
Dew Point 59 °F
Humidity 86%
Rainfall 0.00 in
Snow Depth Not available.
6:23 AM 8:43 PM
Waxing Crescent, 9% visible
METAR KCSM 280553Z AUTO 01019G32KT 10SM FEW032 19/12 A2995 RMK AO2 PK WND 01035/0527 SLP117 T01890122 10311 20189 403440189 51039
Pressure 29.88 in
Visibility 10.0 miles
Clouds Few 3200 ft
Dew Point 59 °F
Humidity 86%
Rainfall 0.00 in
Snow Depth Not available.
6:23 AM 8:43 PM
Waxing Crescent, 9% visible
METAR KCSM 280553Z AUTO 01019G32KT 10SM FEW032 19/12 A2995 RMK AO2 PK WND 01035/0527 SLP117 T01890122 10311 20189 403440189 51039

Get Severe Weather Alerts

Thanks for signing up!

Be on the lookout for a verification email in your inbox.

You'll start receiving the daily forecast at 6 AM.

×

10-Day Weather Forecast

Almanac

Astronomy

May. 28, 2017 Rise Set
Actual Time
Civil Twilight
Nautical Twilight
Astronomical Twilight
Moon
Length of Visible Light
Length of Day
Tomorrow will be .
, % of the Moon is Illuminated

Today's Extremes

State Highs State Lows

Community

WunderPhotos

Category 6

Welcome to Category 6. This is the collective home for Weather Underground's featured writeups by Dr. Jeff Masters (right), Bob Henson (left), Chris Burt, and other regular contributors.

Nearby

Air Quality

  Air Quality AQ Index Pollutant
Not available.

Snow Depth

Station Depth Elevation

Earthquake Activity

City Distance Mag. Time & Date
Minimum magnitude displayed is 2.5.

Coastal Water Temperatures

Place Temperature

Stations

Nearby Weather Stations

Station Location Temp. Windchill Dew Point Humidity Wind Precip. Elev Updated Type
                   

Watches & Warnings

There are currently no watches in effect.